sensor_id;sensor_type;location;lat;lon;timestamp;pressure;altitude;pressure_sealevel;temperature;humidity
20077;BME280;12348;42.710;23.378;2023-05-21T00:00:23;94993.97;;;13.73;100.00
20077;BME280;12348;42.710;23.378;2023-05-21T00:02:49;94984.88;;;13.61;100.00
20077;BME280;12348;42.710;23.378;2023-05-21T00:05:16;94985.84;;;13.65;100.00
20077;BME280;12348;42.710;23.378;2023-05-21T00:07:45;94973.31;;;13.38;100.00
20077;BME280;12348;42.710;23.378;2023-05-21T00:10:12;94978.16;;;13.58;100.00
20077;BME280;12348;42.710;23.378;2023-05-21T00:12:39;94984.25;;;13.32;100.00
20077;BME280;12348;42.710;23.378;2023-05-21T00:15:09;94977.38;;;13.26;100.00
20077;BME280;12348;42.710;23.378;2023-05-21T00:17:36;94976.78;;;13.07;100.00
20077;BME280;12348;42.710;23.378;2023-05-21T00:20:06;94969.81;;;13.15;100.00
20077;BME280;12348;42.710;23.378;2023-05-21T00:22:34;94972.63;;;13.32;100.00
20077;BME280;12348;42.710;23.378;2023-05-21T00:25:01;94970.56;;;13.06;100.00
20077;BME280;12348;42.710;23.378;2023-05-21T00:27:28;94975.72;;;12.94;100.00
20077;BME280;12348;42.710;23.378;2023-05-21T00:29:55;94966.28;;;12.83;100.00
20077;BME280;12348;42.710;23.378;2023-05-21T00:32:23;94964.31;;;12.75;100.00
20077;BME280;12348;42.710;23.378;2023-05-21T00:34:50;94967.44;;;12.91;100.00
20077;BME280;12348;42.710;23.378;2023-05-21T00:37:17;94968.16;;;13.05;100.00
20077;BME280;12348;42.710;23.378;2023-05-21T00:39:44;94964.91;;;12.94;100.00
20077;BME280;12348;42.710;23.378;2023-05-21T00:42:11;94962.72;;;12.96;100.00
20077;BME280;12348;42.710;23.378;2023-05-21T00:44:42;94955.66;;;12.86;100.00
20077;BME280;12348;42.710;23.378;2023-05-21T00:47:10;94961.19;;;12.81;100.00
20077;BME280;12348;42.710;23.378;2023-05-21T00:49:39;94960.06;;;12.82;100.00
20077;BME280;12348;42.710;23.378;2023-05-21T00:52:06;94964.28;;;13.20;100.00
20077;BME280;12348;42.710;23.378;2023-05-21T00:54:34;94964.50;;;13.01;100.00
20077;BME280;12348;42.710;23.378;2023-05-21T00:57:02;94964.91;;;12.94;100.00
20077;BME280;12348;42.710;23.378;2023-05-21T00:59:30;94958.31;;;12.78;100.00
20077;BME280;12348;42.710;23.378;2023-05-21T01:01:58;94954.91;;;12.72;100.00
20077;BME280;12348;42.710;23.378;2023-05-21T01:04:29;94954.91;;;12.72;100.00
20077;BME280;12348;42.710;23.378;2023-05-21T01:06:58;94953.13;;;12.68;100.00
20077;BME280;12348;42.710;23.378;2023-05-21T01:09:26;94963.69;;;12.55;100.00
20077;BME280;12348;42.710;23.378;2023-05-21T01:11:54;94963.00;;;12.50;100.00
20077;BME280;12348;42.710;23.378;2023-05-21T01:14:21;94959.38;;;12.54;100.00
20077;BME280;12348;42.710;23.378;2023-05-21T01:16:49;94955.63;;;12.42;100.00
20077;BME280;12348;42.710;23.378;2023-05-21T01:19:19;94957.50;;;12.55;100.00
20077;BME280;12348;42.710;23.378;2023-05-21T01:21:48;94961.59;;;12.52;100.00
20077;BME280;12348;42.710;23.378;2023-05-21T01:24:18;94948.28;;;12.56;100.00
20077;BME280;12348;42.710;23.378;2023-05-21T01:26:45;94948.47;;;12.59;100.00
20077;BME280;12348;42.710;23.378;2023-05-21T01:29:12;94936.88;;;12.59;100.00
20077;BME280;12348;42.710;23.378;2023-05-21T01:31:50;94935.19;;;12.49;100.00
20077;BME280;12348;42.710;23.378;2023-05-21T01:34:22;94940.97;;;12.56;100.00
20077;BME280;12348;42.710;23.378;2023-05-21T01:36:56;94938.47;;;12.60;100.00
20077;BME280;12348;42.710;23.378;2023-05-21T01:39:32;94938.78;;;12.58;100.00
20077;BME280;12348;42.710;23.378;2023-05-21T01:41:59;94936.41;;;12.66;100.00
20077;BME280;12348;42.710;23.378;2023-05-21T01:44:28;94935.53;;;12.70;100.00
20077;BME280;12348;42.710;23.378;2023-05-21T01:46:55;94943.69;;;12.79;100.00
20077;BME280;12348;42.710;23.378;2023-05-21T01:49:23;94938.63;;;12.86;100.00
20077;BME280;12348;42.710;23.378;2023-05-21T01:51:50;94938.63;;;12.86;100.00
20077;BME280;12348;42.710;23.378;2023-05-21T01:54:17;94938.09;;;12.75;100.00
20077;BME280;12348;42.710;23.378;2023-05-21T01:56:45;94935.75;;;12.82;100.00
20077;BME280;12348;42.710;23.378;2023-05-21T01:59:12;94929.84;;;12.80;100.00
20077;BME280;12348;42.710;23.378;2023-05-21T02:01:39;94932.88;;;12.79;100.00
20077;BME280;12348;42.710;23.378;2023-05-21T02:04:06;94931.91;;;12.75;100.00
20077;BME280;12348;42.710;23.378;2023-05-21T02:06:33;94931.34;;;12.64;100.00
20077;BME280;12348;42.710;23.378;2023-05-21T02:09:00;94929.13;;;12.66;100.00
20077;BME280;12348;42.710;23.378;2023-05-21T02:11:27;94929.81;;;12.72;100.00
20077;BME280;12348;42.710;23.378;2023-05-21T02:13:55;94926.06;;;12.59;100.00
20077;BME280;12348;42.710;23.378;2023-05-21T02:16:22;94925.41;;;12.40;100.00
20077;BME280;12348;42.710;23.378;2023-05-21T02:18:49;94926.53;;;12.83;100.00
20077;BME280;12348;42.710;23.378;2023-05-21T02:21:17;94931.00;;;12.43;100.00
20077;BME280;12348;42.710;23.378;2023-05-21T02:23:45;94937.66;;;12.37;100.00
20077;BME280;12348;42.710;23.378;2023-05-21T02:26:11;94927.78;;;12.32;100.00
20077;BME280;12348;42.710;23.378;2023-05-21T02:28:38;94928.00;;;12.22;100.00
20077;BME280;12348;42.710;23.378;2023-05-21T02:31:07;94935.97;;;12.27;100.00
20077;BME280;12348;42.710;23.378;2023-05-21T02:33:34;94918.81;;;12.46;100.00
20077;BME280;12348;42.710;23.378;2023-05-21T02:36:00;94921.69;;;12.27;100.00
20077;BME280;12348;42.710;23.378;2023-05-21T02:38:28;94916.78;;;12.29;100.00
20077;BME280;12348;42.710;23.378;2023-05-21T02:40:56;94923.06;;;12.24;100.00
20077;BME280;12348;42.710;23.378;2023-05-21T02:43:23;94926.41;;;12.21;100.00
20077;BME280;12348;42.710;23.378;2023-05-21T02:45:50;94923.19;;;12.55;100.00
20077;BME280;12348;42.710;23.378;2023-05-21T02:48:19;94917.47;;;12.57;100.00
20077;BME280;12348;42.710;23.378;2023-05-21T02:50:45;94912.09;;;12.43;100.00
20077;BME280;12348;42.710;23.378;2023-05-21T02:53:12;94912.75;;;12.40;100.00
20077;BME280;12348;42.710;23.378;2023-05-21T02:55:39;94907.94;;;12.37;100.00
20077;BME280;12348;42.710;23.378;2023-05-21T02:58:06;94907.38;;;12.26;100.00
20077;BME280;12348;42.710;23.378;2023-05-21T03:00:33;94904.81;;;12.21;100.00
20077;BME280;12348;42.710;23.378;2023-05-21T03:02:59;94906.63;;;12.12;100.00
20077;BME280;12348;42.710;23.378;2023-05-21T03:05:29;94907.00;;;12.19;100.00
20077;BME280;12348;42.710;23.378;2023-05-21T03:07:56;94907.13;;;12.14;100.00
20077;BME280;12348;42.710;23.378;2023-05-21T03:10:22;94919.00;;;12.13;100.00
20077;BME280;12348;42.710;23.378;2023-05-21T03:12:49;94922.34;;;12.10;100.00
20077;BME280;12348;42.710;23.378;2023-05-21T03:15:17;94921.44;;;12.37;100.00
20077;BME280;12348;42.710;23.378;2023-05-21T03:17:48;94920.28;;;12.29;100.00
20077;BME280;12348;42.710;23.378;2023-05-21T03:20:15;94932.81;;;12.48;100.00
20077;BME280;12348;42.710;23.378;2023-05-21T03:22:45;94930.13;;;12.48;100.00
20077;BME280;12348;42.710;23.378;2023-05-21T03:25:12;94920.72;;;12.45;100.00
20077;BME280;12348;42.710;23.378;2023-05-21T03:27:40;94918.94;;;12.41;100.00
20077;BME280;12348;42.710;23.378;2023-05-21T03:30:07;94925.13;;;12.41;100.00
20077;BME280;12348;42.710;23.378;2023-05-21T03:32:34;94927.78;;;12.55;100.00
20077;BME280;12348;42.710;23.378;2023-05-21T03:35:03;94928.78;;;12.59;100.00
20077;BME280;12348;42.710;23.378;2023-05-21T03:37:30;94927.53;;;12.65;100.00
20077;BME280;12348;42.710;23.378;2023-05-21T03:39:59;94929.38;;;12.78;100.00
20077;BME280;12348;42.710;23.378;2023-05-21T03:42:26;94926.97;;;12.77;100.00
20077;BME280;12348;42.710;23.378;2023-05-21T03:44:52;94924.25;;;12.77;100.00
20077;BME280;12348;42.710;23.378;2023-05-21T03:47:19;94929.59;;;12.91;100.00
20077;BME280;12348;42.710;23.378;2023-05-21T03:49:46;94928.66;;;12.95;100.00
20077;BME280;12348;42.710;23.378;2023-05-21T03:52:13;94925.75;;;13.14;100.00
20077;BME280;12348;42.710;23.378;2023-05-21T03:54:40;94910.19;;;13.20;100.00
20077;BME280;12348;42.710;23.378;2023-05-21T03:57:08;94917.91;;;13.26;100.00
20077;BME280;12348;42.710;23.378;2023-05-21T03:59:35;94913.47;;;13.30;100.00
20077;BME280;12348;42.710;23.378;2023-05-21T04:02:02;94920.00;;;13.29;100.00
20077;BME280;12348;42.710;23.378;2023-05-21T04:04:29;94919.06;;;13.43;100.00
20077;BME280;12348;42.710;23.378;2023-05-21T04:06:55;94918.00;;;13.52;100.00
20077;BME280;12348;42.710;23.378;2023-05-21T04:09:22;94922.84;;;13.81;100.00
20077;BME280;12348;42.710;23.378;2023-05-21T04:11:49;94922.38;;;13.88;100.00
20077;BME280;12348;42.710;23.378;2023-05-21T04:14:17;94922.72;;;13.87;100.00
20077;BME280;12348;42.710;23.378;2023-05-21T04:16:44;94917.13;;;13.83;100.00
20077;BME280;12348;42.710;23.378;2023-05-21T04:19:13;94919.84;;;13.83;100.00
20077;BME280;12348;42.710;23.378;2023-05-21T04:21:40;94910.13;;;13.91;100.00
20077;BME280;12348;42.710;23.378;2023-05-21T04:24:09;94917.75;;;13.89;100.00
20077;BME280;12348;42.710;23.378;2023-05-21T04:26:36;94915.09;;;13.97;100.00
20077;BME280;12348;42.710;23.378;2023-05-21T04:29:06;94915.44;;;14.04;100.00
20077;BME280;12348;42.710;23.378;2023-05-21T04:31:35;94917.47;;;14.07;100.00
20077;BME280;12348;42.710;23.378;2023-05-21T04:34:02;94918.31;;;14.25;100.00
20077;BME280;12348;42.710;23.378;2023-05-21T04:36:29;94917.81;;;14.41;100.00
20077;BME280;12348;42.710;23.378;2023-05-21T04:38:56;94917.53;;;14.51;100.00
20077;BME280;12348;42.710;23.378;2023-05-21T04:41:23;94923.91;;;14.64;100.00
20077;BME280;12348;42.710;23.378;2023-05-21T04:43:50;94918.63;;;14.67;100.00
20077;BME280;12348;42.710;23.378;2023-05-21T04:46:19;94922.78;;;14.73;100.00
20077;BME280;12348;42.710;23.378;2023-05-21T04:48:51;94926.72;;;14.93;100.00
20077;BME280;12348;42.710;23.378;2023-05-21T04:51:19;94918.91;;;15.09;100.00
20077;BME280;12348;42.710;23.378;2023-05-21T04:53:47;94922.22;;;15.15;100.00
20077;BME280;12348;42.710;23.378;2023-05-21T04:56:15;94913.72;;;15.34;100.00
20077;BME280;12348;42.710;23.378;2023-05-21T04:58:42;94917.50;;;15.41;100.00
20077;BME280;12348;42.710;23.378;2023-05-21T05:01:09;94914.28;;;15.48;100.00
20077;BME280;12348;42.710;23.378;2023-05-21T05:03:36;94922.50;;;15.78;100.00
20077;BME280;12348;42.710;23.378;2023-05-21T05:06:05;94922.00;;;16.05;100.00
20077;BME280;12348;42.710;23.378;2023-05-21T05:08:33;94923.50;;;16.23;100.00
20077;BME280;12348;42.710;23.378;2023-05-21T05:10:59;94919.38;;;16.38;100.00
20077;BME280;12348;42.710;23.378;2023-05-21T05:13:26;94920.75;;;16.65;100.00
20077;BME280;12348;42.710;23.378;2023-05-21T05:15:53;94928.28;;;16.89;100.00
20077;BME280;12348;42.710;23.378;2023-05-21T05:18:22;94922.88;;;17.14;100.00
20077;BME280;12348;42.710;23.378;2023-05-21T05:20:48;94923.97;;;17.22;100.00
20077;BME280;12348;42.710;23.378;2023-05-21T05:23:17;94923.75;;;17.51;100.00
20077;BME280;12348;42.710;23.378;2023-05-21T05:25:43;94919.47;;;17.50;100.00
20077;BME280;12348;42.710;23.378;2023-05-21T05:28:10;94925.91;;;17.33;100.00
20077;BME280;12348;42.710;23.378;2023-05-21T05:30:37;94925.69;;;17.38;100.00
20077;BME280;12348;42.710;23.378;2023-05-21T05:33:04;94916.19;;;17.69;100.00
20077;BME280;12348;42.710;23.378;2023-05-21T05:35:31;94916.56;;;17.80;100.00
20077;BME280;12348;42.710;23.378;2023-05-21T05:37:57;94915.28;;;17.77;100.00
20077;BME280;12348;42.710;23.378;2023-05-21T05:40:26;94917.66;;;17.66;100.00
20077;BME280;12348;42.710;23.378;2023-05-21T05:42:52;94914.97;;;17.79;100.00
20077;BME280;12348;42.710;23.378;2023-05-21T05:45:19;94914.00;;;17.62;100.00
20077;BME280;12348;42.710;23.378;2023-05-21T05:47:46;94911.22;;;17.96;100.00
20077;BME280;12348;42.710;23.378;2023-05-21T05:50:13;94917.66;;;18.28;100.00
20077;BME280;12348;42.710;23.378;2023-05-21T05:52:40;94917.28;;;18.29;100.00
20077;BME280;12348;42.710;23.378;2023-05-21T05:55:07;94907.97;;;18.42;100.00
20077;BME280;12348;42.710;23.378;2023-05-21T05:57:35;94903.03;;;18.60;100.00
20077;BME280;12348;42.710;23.378;2023-05-21T06:00:03;94909.47;;;19.68;100.00
20077;BME280;12348;42.710;23.378;2023-05-21T06:02:30;94907.25;;;22.10;100.00
20077;BME280;12348;42.710;23.378;2023-05-21T06:04:57;94905.50;;;25.14;78.37
20077;BME280;12348;42.710;23.378;2023-05-21T06:07:23;94907.63;;;26.28;69.29
20077;BME280;12348;42.710;23.378;2023-05-21T06:09:50;94915.03;;;24.51;72.00
20077;BME280;12348;42.710;23.378;2023-05-21T06:12:17;94908.34;;;22.89;77.46
20077;BME280;12348;42.710;23.378;2023-05-21T06:14:45;94902.19;;;23.29;80.12
20077;BME280;12348;42.710;23.378;2023-05-21T06:17:13;94903.47;;;24.28;72.56
20077;BME280;12348;42.710;23.378;2023-05-21T06:19:40;94905.19;;;25.37;68.68
20077;BME280;12348;42.710;23.378;2023-05-21T06:22:07;94898.53;;;26.64;63.17
20077;BME280;12348;42.710;23.378;2023-05-21T06:24:33;94901.41;;;27.34;59.35
20077;BME280;12348;42.710;23.378;2023-05-21T06:27:00;94898.81;;;25.12;64.94
20077;BME280;12348;42.710;23.378;2023-05-21T06:29:28;94896.78;;;23.03;71.57
20077;BME280;12348;42.710;23.378;2023-05-21T06:31:56;94897.81;;;23.25;73.79
20077;BME280;12348;42.710;23.378;2023-05-21T06:34:23;94894.75;;;22.66;75.05
20077;BME280;12348;42.710;23.378;2023-05-21T06:36:50;94895.28;;;23.09;69.29
20077;BME280;12348;42.710;23.378;2023-05-21T06:39:17;94885.88;;;23.10;69.31
20077;BME280;12348;42.710;23.378;2023-05-21T06:41:44;94887.28;;;22.96;69.28
20077;BME280;12348;42.710;23.378;2023-05-21T06:44:10;94883.09;;;23.43;68.81
20077;BME280;12348;42.710;23.378;2023-05-21T06:46:37;94888.13;;;22.70;70.76
20077;BME280;12348;42.710;23.378;2023-05-21T06:49:06;94878.94;;;22.56;70.57
20077;BME280;12348;42.710;23.378;2023-05-21T06:51:33;94883.66;;;23.22;70.03
20077;BME280;12348;42.710;23.378;2023-05-21T06:53:59;94873.47;;;24.78;62.55
20077;BME280;12348;42.710;23.378;2023-05-21T06:56:26;94877.25;;;25.71;60.03
20077;BME280;12348;42.710;23.378;2023-05-21T06:58:53;94872.13;;;26.38;58.70
20077;BME280;12348;42.710;23.378;2023-05-21T07:01:20;94879.22;;;26.39;58.12
20077;BME280;12348;42.710;23.378;2023-05-21T07:03:47;94877.91;;;26.90;53.24
20077;BME280;12348;42.710;23.378;2023-05-21T07:06:15;94877.03;;;24.85;60.07
20077;BME280;12348;42.710;23.378;2023-05-21T07:08:42;94875.66;;;25.45;56.85
20077;BME280;12348;42.710;23.378;2023-05-21T07:11:09;94876.63;;;24.14;60.49
20077;BME280;12348;42.710;23.378;2023-05-21T07:13:36;94877.09;;;24.27;61.71
20077;BME280;12348;42.710;23.378;2023-05-21T07:16:02;94868.56;;;25.69;56.27
20077;BME280;12348;42.710;23.378;2023-05-21T07:18:30;94872.94;;;26.13;53.66
20077;BME280;12348;42.710;23.378;2023-05-21T07:20:57;94869.75;;;25.54;55.58
20077;BME280;12348;42.710;23.378;2023-05-21T07:23:25;94865.28;;;24.96;58.03
20077;BME280;12348;42.710;23.378;2023-05-21T07:25:52;94867.03;;;26.22;52.78
20077;BME280;12348;42.710;23.378;2023-05-21T07:28:19;94871.59;;;26.93;52.69
20077;BME280;12348;42.710;23.378;2023-05-21T07:30:46;94867.06;;;28.42;48.04
20077;BME280;12348;42.710;23.378;2023-05-21T07:33:13;94865.34;;;28.86;46.59
20077;BME280;12348;42.710;23.378;2023-05-21T07:35:40;94869.19;;;29.88;46.39
20077;BME280;12348;42.710;23.378;2023-05-21T07:38:07;94862.13;;;31.53;42.45
20077;BME280;12348;42.710;23.378;2023-05-21T07:40:35;94869.94;;;31.02;41.96
20077;BME280;12348;42.710;23.378;2023-05-21T07:43:02;94870.25;;;29.94;44.64
20077;BME280;12348;42.710;23.378;2023-05-21T07:45:29;94868.00;;;28.97;45.42
20077;BME280;12348;42.710;23.378;2023-05-21T07:47:55;94869.03;;;29.71;46.69
20077;BME280;12348;42.710;23.378;2023-05-21T07:50:23;94873.13;;;27.04;46.64
20077;BME280;12348;42.710;23.378;2023-05-21T07:52:50;94863.44;;;26.35;42.66
20077;BME280;12348;42.710;23.378;2023-05-21T07:55:17;94870.97;;;25.78;44.38
20077;BME280;12348;42.710;23.378;2023-05-21T07:57:45;94881.31;;;24.79;41.61
20077;BME280;12348;42.710;23.378;2023-05-21T08:00:13;94895.63;;;23.41;44.32
20077;BME280;12348;42.710;23.378;2023-05-21T08:02:40;94892.97;;;22.81;45.50
20077;BME280;12348;42.710;23.378;2023-05-21T08:05:07;94874.16;;;21.96;49.70
20077;BME280;12348;42.710;23.378;2023-05-21T08:07:34;94879.75;;;21.80;51.01
20077;BME280;12348;42.710;23.378;2023-05-21T08:10:01;94865.44;;;21.90;51.76
20077;BME280;12348;42.710;23.378;2023-05-21T08:12:29;94866.28;;;21.02;53.98
20077;BME280;12348;42.710;23.378;2023-05-21T08:14:58;94896.66;;;21.82;52.88
20077;BME280;12348;42.710;23.378;2023-05-21T08:17:24;94897.06;;;21.84;50.00
20077;BME280;12348;42.710;23.378;2023-05-21T08:19:52;94880.94;;;21.33;50.78
20077;BME280;12348;42.710;23.378;2023-05-21T08:22:19;94876.63;;;22.31;51.74
20077;BME280;12348;42.710;23.378;2023-05-21T08:24:46;94891.09;;;22.28;49.55
20077;BME280;12348;42.710;23.378;2023-05-21T08:27:13;94883.94;;;22.80;47.72
20077;BME280;12348;42.710;23.378;2023-05-21T08:29:40;94847.47;;;23.13;48.77
20077;BME280;12348;42.710;23.378;2023-05-21T08:32:08;94847.59;;;22.57;49.45
20077;BME280;12348;42.710;23.378;2023-05-21T08:34:35;94868.41;;;22.61;46.91
20077;BME280;12348;42.710;23.378;2023-05-21T08:37:02;94895.41;;;22.56;45.73
20077;BME280;12348;42.710;23.378;2023-05-21T08:39:29;94887.81;;;21.92;48.78
20077;BME280;12348;42.710;23.378;2023-05-21T08:42:02;94885.03;;;22.15;46.92
20077;BME280;12348;42.710;23.378;2023-05-21T08:44:32;94884.50;;;21.83;48.92
20077;BME280;12348;42.710;23.378;2023-05-21T08:47:01;94877.88;;;22.64;46.30
20077;BME280;12348;42.710;23.378;2023-05-21T08:49:33;94895.78;;;23.59;45.42
20077;BME280;12348;42.710;23.378;2023-05-21T08:52:01;94878.88;;;23.53;45.74
20077;BME280;12348;42.710;23.378;2023-05-21T08:54:28;94882.53;;;23.27;44.76
20077;BME280;12348;42.710;23.378;2023-05-21T08:56:55;94879.78;;;23.27;47.10
20077;BME280;12348;42.710;23.378;2023-05-21T08:59:24;94864.56;;;24.36;45.53
20077;BME280;12348;42.710;23.378;2023-05-21T09:01:51;94898.19;;;24.67;44.44
20077;BME280;12348;42.710;23.378;2023-05-21T09:04:18;94873.16;;;25.01;43.89
20077;BME280;12348;42.710;23.378;2023-05-21T09:06:47;94877.22;;;25.39;41.92
20077;BME280;12348;42.710;23.378;2023-05-21T09:09:20;94889.03;;;23.93;43.32
20077;BME280;12348;42.710;23.378;2023-05-21T09:11:50;94894.44;;;23.79;44.35
20077;BME280;12348;42.710;23.378;2023-05-21T09:14:18;94868.41;;;24.17;44.41
20077;BME280;12348;42.710;23.378;2023-05-21T09:16:45;94873.13;;;23.28;46.56
20077;BME280;12348;42.710;23.378;2023-05-21T09:19:13;94873.94;;;22.95;49.18
20077;BME280;12348;42.710;23.378;2023-05-21T09:21:39;94865.75;;;23.77;46.26
20077;BME280;12348;42.710;23.378;2023-05-21T09:24:09;94868.41;;;24.21;46.71
20077;BME280;12348;42.710;23.378;2023-05-21T09:26:36;94867.09;;;23.53;49.93
20077;BME280;12348;42.710;23.378;2023-05-21T09:29:06;94872.50;;;23.86;48.73
20077;BME280;12348;42.710;23.378;2023-05-21T09:31:33;94870.59;;;24.56;46.29
20077;BME280;12348;42.710;23.378;2023-05-21T09:34:01;94860.69;;;24.41;46.01
20077;BME280;12348;42.710;23.378;2023-05-21T09:36:28;94863.94;;;23.99;45.68
20077;BME280;12348;42.710;23.378;2023-05-21T09:38:54;94863.41;;;23.38;48.24
20077;BME280;12348;42.710;23.378;2023-05-21T09:41:31;94886.41;;;24.11;44.17
20077;BME280;12348;42.710;23.378;2023-05-21T09:44:00;94862.66;;;24.40;43.26
20077;BME280;12348;42.710;23.378;2023-05-21T09:46:27;94844.66;;;24.64;43.48
20077;BME280;12348;42.710;23.378;2023-05-21T09:49:02;94868.53;;;25.23;40.33
20077;BME280;12348;42.710;23.378;2023-05-21T09:51:29;94860.56;;;24.27;41.24
20077;BME280;12348;42.710;23.378;2023-05-21T09:53:56;94854.53;;;24.03;42.42
20077;BME280;12348;42.710;23.378;2023-05-21T09:56:25;94854.22;;;24.85;41.95
20077;BME280;12348;42.710;23.378;2023-05-21T09:58:55;94848.84;;;26.53;38.82
20077;BME280;12348;42.710;23.378;2023-05-21T10:01:23;94838.53;;;26.71;39.25
20077;BME280;12348;42.710;23.378;2023-05-21T10:03:53;94849.09;;;24.87;41.75
20077;BME280;12348;42.710;23.378;2023-05-21T10:06:23;94845.69;;;25.19;41.17
20077;BME280;12348;42.710;23.378;2023-05-21T10:08:52;94840.19;;;26.29;39.77
20077;BME280;12348;42.710;23.378;2023-05-21T10:11:22;94844.56;;;26.05;39.41
20077;BME280;12348;42.710;23.378;2023-05-21T10:13:57;94847.22;;;26.63;38.73
20077;BME280;12348;42.710;23.378;2023-05-21T10:16:27;94846.50;;;25.37;40.53
20077;BME280;12348;42.710;23.378;2023-05-21T10:18:55;94842.09;;;23.68;44.05
20077;BME280;12348;42.710;23.378;2023-05-21T10:21:23;94842.00;;;23.58;44.12
20077;BME280;12348;42.710;23.378;2023-05-21T10:23:52;94836.41;;;23.06;46.58
20077;BME280;12348;42.710;23.378;2023-05-21T10:26:21;94831.69;;;23.07;45.78
20077;BME280;12348;42.710;23.378;2023-05-21T10:28:50;94837.13;;;23.85;44.27
20077;BME280;12348;42.710;23.378;2023-05-21T10:31:18;94837.25;;;23.14;46.04
20077;BME280;12348;42.710;23.378;2023-05-21T10:33:46;94836.72;;;22.97;46.27
20077;BME280;12348;42.710;23.378;2023-05-21T10:36:15;94823.53;;;22.80;46.50
20077;BME280;12348;42.710;23.378;2023-05-21T10:38:43;94834.53;;;22.80;46.80
20077;BME280;12348;42.710;23.378;2023-05-21T10:41:11;94823.41;;;22.69;47.78
20077;BME280;12348;42.710;23.378;2023-05-21T10:43:51;94824.72;;;22.15;49.92
20077;BME280;12348;42.710;23.378;2023-05-21T10:49:40;94823.97;;;21.95;51.83
20077;BME280;12348;42.710;23.378;2023-05-21T10:52:26;94820.72;;;22.13;51.57
20077;BME280;12348;42.710;23.378;2023-05-21T10:55:10;94821.88;;;23.06;48.62
20077;BME280;12348;42.710;23.378;2023-05-21T10:58:12;94820.75;;;22.77;48.71
20077;BME280;12348;42.710;23.378;2023-05-21T11:00:43;94815.63;;;22.11;50.57
20077;BME280;12348;42.710;23.378;2023-05-21T11:03:12;94815.63;;;22.11;50.68
20077;BME280;12348;42.710;23.378;2023-05-21T11:05:50;94817.44;;;21.50;54.40
20077;BME280;12348;42.710;23.378;2023-05-21T11:08:20;94821.00;;;21.54;54.09
20077;BME280;12348;42.710;23.378;2023-05-21T11:10:52;94820.38;;;21.38;55.93
20077;BME280;12348;42.710;23.378;2023-05-21T11:13:19;94822.31;;;21.38;55.33
20077;BME280;12348;42.710;23.378;2023-05-21T11:16:05;94814.50;;;21.63;53.89
20077;BME280;12348;42.710;23.378;2023-05-21T11:19:01;94809.81;;;22.46;52.63
20077;BME280;12348;42.710;23.378;2023-05-21T11:21:29;94807.41;;;22.75;51.33
20077;BME280;12348;42.710;23.378;2023-05-21T11:24:17;94801.09;;;21.84;52.37
20077;BME280;12348;42.710;23.378;2023-05-21T11:27:01;94798.06;;;21.89;52.21
20077;BME280;12348;42.710;23.378;2023-05-21T11:29:39;94784.34;;;22.16;52.67
20077;BME280;12348;42.710;23.378;2023-05-21T11:32:07;94790.72;;;22.23;53.51
20077;BME280;12348;42.710;23.378;2023-05-21T11:34:43;94800.06;;;21.92;53.41
20077;BME280;12348;42.710;23.378;2023-05-21T11:37:25;94806.69;;;21.65;54.83
20077;BME280;12348;42.710;23.378;2023-05-21T11:39:55;94808.53;;;21.84;54.78
20077;BME280;12348;42.710;23.378;2023-05-21T11:42:29;94803.72;;;21.73;54.69
20077;BME280;12348;42.710;23.378;2023-05-21T11:44:56;94793.72;;;21.62;54.72
20077;BME280;12348;42.710;23.378;2023-05-21T11:47:25;94788.94;;;21.32;56.02
20077;BME280;12348;42.710;23.378;2023-05-21T11:49:54;94779.84;;;21.51;55.55
20077;BME280;12348;42.710;23.378;2023-05-21T11:52:21;94786.63;;;21.57;55.34
20077;BME280;12348;42.710;23.378;2023-05-21T11:54:51;94793.16;;;21.26;56.30
20077;BME280;12348;42.710;23.378;2023-05-21T11:57:20;94805.25;;;21.02;60.57
20077;BME280;12348;42.710;23.378;2023-05-21T11:59:48;94780.63;;;20.60;64.41
20077;BME280;12348;42.710;23.378;2023-05-21T12:02:17;94817.75;;;20.22;63.19
20077;BME280;12348;42.710;23.378;2023-05-21T12:04:45;94780.56;;;20.17;64.62
20077;BME280;12348;42.710;23.378;2023-05-21T12:07:14;94777.66;;;20.10;64.22
20077;BME280;12348;42.710;23.378;2023-05-21T12:09:42;94791.75;;;20.12;66.76
20077;BME280;12348;42.710;23.378;2023-05-21T12:12:10;94783.47;;;20.08;66.31
20077;BME280;12348;42.710;23.378;2023-05-21T12:14:38;94779.31;;;20.15;67.16
20077;BME280;12348;42.710;23.378;2023-05-21T12:17:05;94792.69;;;20.20;67.23
20077;BME280;12348;42.710;23.378;2023-05-21T12:19:35;94763.22;;;20.29;66.33
20077;BME280;12348;42.710;23.378;2023-05-21T12:22:03;94757.94;;;20.40;66.47
20077;BME280;12348;42.710;23.378;2023-05-21T12:24:33;94778.47;;;20.49;65.52
20077;BME280;12348;42.710;23.378;2023-05-21T12:27:01;94765.38;;;20.58;66.40
20077;BME280;12348;42.710;23.378;2023-05-21T12:29:34;94780.31;;;20.65;66.38
20077;BME280;12348;42.710;23.378;2023-05-21T12:32:03;94777.97;;;20.63;67.44
20077;BME280;12348;42.710;23.378;2023-05-21T12:34:38;94775.09;;;20.56;67.32
20077;BME280;12348;42.710;23.378;2023-05-21T12:37:06;94768.66;;;20.68;67.27
20077;BME280;12348;42.710;23.378;2023-05-21T12:39:39;94768.38;;;20.53;66.14
20077;BME280;12348;42.710;23.378;2023-05-21T12:42:06;94766.94;;;20.60;66.48
20077;BME280;12348;42.710;23.378;2023-05-21T12:44:33;94769.75;;;20.63;68.24
20077;BME280;12348;42.710;23.378;2023-05-21T12:47:00;94764.09;;;20.75;67.96
20077;BME280;12348;42.710;23.378;2023-05-21T12:49:35;94757.13;;;20.78;69.10
20077;BME280;12348;42.710;23.378;2023-05-21T12:52:03;94759.59;;;20.64;67.92
20077;BME280;12348;42.710;23.378;2023-05-21T12:54:32;94762.06;;;20.49;67.43